Time;durP1;ratioP1;P1;durP2;ratioP2;P2;SDS_P1;SDS_P2;PMS_P1;PMS_P2;Temp;Humidity;BMP_temperature;BMP_pressure;BME280_temperature;BME280_humidity;BME280_pressure;Samples;Min_cycle;Max_cycle;Signal;HPM_P1;HPM_P2
2020/12/12 19:52:05;;;;;;;8.60;4.67;;;10.10;99.90;;;;;;4915202;29;20309;-70
2020/12/12 19:54:31;;;;;;;10.00;5.60;;;10.20;99.90;;;;;;4917285;29;20206;-76
2020/12/12 19:56:58;;;;;;;9.00;4.90;;;10.20;99.90;;;;;;4917176;29;20322;-71
2020/12/12 19:59:24;;;;;;;8.90;4.63;;;10.20;99.90;;;;;;4926555;29;20297;-72
2020/12/12 20:01:50;;;;;;;10.50;5.03;;;10.10;99.90;;;;;;4926588;29;20278;-72
2020/12/12 20:04:16;;;;;;;9.53;5.40;;;10.10;99.90;;;;;;4925727;29;20213;-72
2020/12/12 20:06:42;;;;;;;10.53;5.20;;;10.20;99.90;;;;;;4925010;29;20247;-71
2020/12/12 20:09:10;;;;;;;8.87;5.17;;;10.20;99.90;;;;;;4905051;29;20210;-71
2020/12/12 20:11:36;;;;;;;12.17;5.37;;;10.20;99.90;;;;;;4897014;29;20656;-71
2020/12/12 20:14:03;;;;;;;12.97;5.17;;;10.10;99.90;;;;;;4900239;29;20278;-74
2020/12/12 20:16:29;;;;;;;9.50;5.17;;;10.10;99.90;;;;;;4900363;29;20209;-71
2020/12/12 20:18:55;;;;;;;8.60;4.87;;;10.00;99.90;;;;;;4898884;29;20242;-70
2020/12/12 20:21:22;;;;;;;10.80;5.00;;;10.10;99.90;;;;;;4900287;29;20209;-71
2020/12/12 20:23:48;;;;;;;9.27;5.40;;;10.10;99.90;;;;;;4898143;29;20601;-76
2020/12/12 20:26:15;;;;;;;9.00;4.50;;;10.10;99.90;;;;;;4898444;29;20214;-71
2020/12/12 20:28:41;;;;;;;8.03;4.53;;;10.10;99.90;;;;;;4897348;29;20207;-77
2020/12/12 20:31:09;;;;;;;6.73;4.20;;;10.10;99.90;;;;;;4896730;29;20211;-71
2020/12/12 20:33:38;;;;;;;7.83;4.50;;;10.20;99.90;;;;;;4901189;29;21689;-71
2020/12/12 20:36:04;;;;;;;7.07;3.73;;;10.20;99.90;;;;;;4897971;29;20531;-76
2020/12/12 20:38:30;;;;;;;9.53;3.87;;;10.10;99.90;;;;;;4899397;29;20242;-71
2020/12/12 20:40:56;;;;;;;5.40;3.50;;;10.20;99.90;;;;;;4897373;29;20207;-79
2020/12/12 20:43:23;;;;;;;5.43;3.40;;;10.20;99.90;;;;;;4897553;29;20206;-74
2020/12/12 20:45:50;;;;;;;5.43;3.30;;;10.30;99.90;;;;;;4896177;29;20238;-71
2020/12/12 20:48:16;;;;;;;6.90;3.90;;;10.30;99.90;;;;;;4898889;29;20316;-72
2020/12/12 20:50:43;;;;;;;5.23;3.43;;;10.20;99.90;;;;;;4908154;29;20214;-71
2020/12/12 20:53:12;;;;;;;8.63;3.37;;;10.20;99.90;;;;;;4898111;29;20211;-71
2020/12/12 20:55:39;;;;;;;8.50;4.10;;;10.20;99.90;;;;;;4898764;29;20206;-70
2020/12/12 20:58:06;;;;;;;5.87;3.63;;;10.10;99.90;;;;;;4897657;29;20597;-70
2020/12/12 21:00:34;;;;;;;6.13;3.63;;;10.10;99.90;;;;;;4901885;29;20211;-71
2020/12/12 21:03:02;;;;;;;5.47;3.30;;;10.20;99.90;;;;;;4933276;29;20276;-70
2020/12/12 21:05:28;;;;;;;6.33;2.80;;;10.00;99.90;;;;;;4920116;29;20233;-70
2020/12/12 21:07:55;;;;;;;8.33;3.43;;;10.00;99.90;;;;;;4920869;29;20708;-72
2020/12/12 21:10:21;;;;;;;5.37;3.40;;;9.80;99.90;;;;;;4922151;29;20576;-70
2020/12/12 21:12:47;;;;;;;4.77;2.90;;;9.90;99.90;;;;;;4934275;29;20220;-77
2020/12/12 21:15:14;;;;;;;5.10;3.00;;;10.00;99.90;;;;;;4936784;29;20201;-70
2020/12/12 21:17:41;;;;;;;5.87;2.93;;;10.00;99.90;;;;;;4923423;29;20240;-71
2020/12/12 21:20:08;;;;;;;4.63;2.83;;;9.80;99.90;;;;;;4937939;29;20233;-72
2020/12/12 21:22:34;;;;;;;5.03;2.87;;;9.80;99.90;;;;;;4935687;29;20323;-71
2020/12/12 21:25:00;;;;;;;3.90;2.57;;;9.70;99.90;;;;;;4922419;29;20664;-70
2020/12/12 21:27:27;;;;;;;4.63;2.60;;;9.80;99.90;;;;;;4936644;29;20592;-75
2020/12/12 21:29:53;;;;;;;3.83;2.53;;;9.80;99.90;;;;;;4923522;29;20253;-72
2020/12/12 21:32:20;;;;;;;4.53;2.83;;;9.90;99.90;;;;;;4936867;29;20213;-71
2020/12/12 21:34:48;;;;;;;4.33;2.50;;;9.90;99.90;;;;;;4935292;29;20227;-71
2020/12/12 21:37:14;;;;;;;4.40;2.73;;;9.90;99.90;;;;;;4936417;29;20235;-74
2020/12/12 21:39:40;;;;;;;4.40;2.97;;;10.00;99.90;;;;;;4936673;29;20236;-71
2020/12/12 21:42:06;;;;;;;4.40;2.90;;;10.00;99.90;;;;;;4936178;29;20205;-70
2020/12/12 21:44:33;;;;;;;4.47;2.93;;;10.00;99.90;;;;;;4936839;29;20217;-70
2020/12/12 21:46:59;;;;;;;4.37;2.77;;;10.00;99.90;;;;;;4935613;29;20251;-78
2020/12/12 21:49:25;;;;;;;4.07;2.73;;;10.00;99.90;;;;;;4936529;29;20232;-73
2020/12/12 21:51:53;;;;;;;4.70;2.80;;;10.00;99.90;;;;;;4934945;29;20213;-70
2020/12/12 21:54:19;;;;;;;5.50;2.87;;;10.00;99.90;;;;;;4936303;29;20564;-71
2020/12/12 21:56:46;;;;;;;3.70;2.80;;;10.00;99.90;;;;;;4935539;29;20232;-70
2020/12/12 21:59:12;;;;;;;5.03;3.00;;;10.00;99.90;;;;;;4912081;29;20240;-72
2020/12/12 22:01:38;;;;;;;4.27;2.70;;;10.00;99.90;;;;;;4936297;29;20600;-71
2020/12/12 22:04:06;;;;;;;4.73;2.93;;;10.00;99.90;;;;;;4935439;29;20212;-70
2020/12/12 22:06:36;;;;;;;3.70;2.63;;;10.00;99.90;;;;;;4936224;29;20265;-72
2020/12/12 22:09:04;;;;;;;3.53;2.37;;;9.90;99.90;;;;;;4935655;29;20209;-71
2020/12/12 22:11:31;;;;;;;4.20;2.60;;;9.90;99.90;;;;;;4936751;29;20209;-76
2020/12/12 22:13:57;;;;;;;4.20;2.60;;;9.90;99.90;;;;;;4935738;29;20208;-70
2020/12/12 22:16:24;;;;;;;4.40;2.73;;;10.00;99.90;;;;;;4917658;29;20233;-71
2020/12/12 22:18:51;;;;;;;4.13;2.60;;;10.00;99.90;;;;;;4899953;29;20235;-69
2020/12/12 22:21:18;;;;;;;4.20;2.80;;;9.90;99.90;;;;;;4911757;29;20210;-72
2020/12/12 22:23:44;;;;;;;4.93;3.00;;;9.90;99.90;;;;;;4916702;29;20208;-80
2020/12/12 22:26:11;;;;;;;9.10;3.23;;;9.90;99.90;;;;;;4917665;29;20213;-71
2020/12/12 22:28:39;;;;;;;4.07;2.53;;;9.90;99.90;;;;;;4916459;29;20205;-71
